sensor_id;sensor_type;location;lat;lon;timestamp;pressure;altitude;pressure_sealevel;temperature;humidity
24045;BME280;26257;49.442;8.422;2023-03-25T00:00:12;99712.00;;;11.66;100.00
24045;BME280;26257;49.442;8.422;2023-03-25T00:02:49;99716.50;;;11.50;100.00
24045;BME280;26257;49.442;8.422;2023-03-25T00:05:20;99705.06;;;11.42;100.00
24045;BME280;26257;49.442;8.422;2023-03-25T00:07:48;99708.59;;;11.46;100.00
24045;BME280;26257;49.442;8.422;2023-03-25T00:10:28;99731.50;;;11.51;100.00
24045;BME280;26257;49.442;8.422;2023-03-25T00:13:25;99723.56;;;11.51;100.00
24045;BME280;26257;49.442;8.422;2023-03-25T00:15:52;99733.31;;;11.42;100.00
24045;BME280;26257;49.442;8.422;2023-03-25T00:18:21;99727.09;;;11.46;100.00
24045;BME280;26257;49.442;8.422;2023-03-25T00:20:52;99735.97;;;11.33;100.00
24045;BME280;26257;49.442;8.422;2023-03-25T00:23:18;99727.16;;;11.35;100.00
24045;BME280;26257;49.442;8.422;2023-03-25T00:25:46;99735.09;;;11.34;100.00
24045;BME280;26257;49.442;8.422;2023-03-25T00:28:13;99734.22;;;11.39;100.00
24045;BME280;26257;49.442;8.422;2023-03-25T00:30:39;99735.09;;;11.29;100.00
24045;BME280;26257;49.442;8.422;2023-03-25T00:33:06;99730.75;;;11.16;100.00
24045;BME280;26257;49.442;8.422;2023-03-25T00:35:31;99729.00;;;11.18;100.00
24045;BME280;26257;49.442;8.422;2023-03-25T00:37:57;99730.75;;;11.16;100.00
24045;BME280;26257;49.442;8.422;2023-03-25T00:40:28;99730.75;;;11.16;100.00
24045;BME280;26257;49.442;8.422;2023-03-25T00:42:55;99733.41;;;11.18;100.00
24045;BME280;26257;49.442;8.422;2023-03-25T00:45:21;99743.97;;;11.19;100.00
24045;BME280;26257;49.442;8.422;2023-03-25T00:47:46;99735.19;;;11.12;100.00
24045;BME280;26257;49.442;8.422;2023-03-25T00:50:12;99739.63;;;11.07;100.00
24045;BME280;26257;49.442;8.422;2023-03-25T00:52:37;99729.03;;;11.12;100.00
24045;BME280;26257;49.442;8.422;2023-03-25T00:55:04;99727.31;;;10.93;100.00
24045;BME280;26257;49.442;8.422;2023-03-25T00:57:29;99729.91;;;11.12;100.00
24045;BME280;26257;49.442;8.422;2023-03-25T00:59:55;99729.00;;;11.18;100.00
24045;BME280;26257;49.442;8.422;2023-03-25T01:02:22;99727.22;;;11.26;100.00
24045;BME280;26257;49.442;8.422;2023-03-25T01:04:48;99715.75;;;11.21;100.00
24045;BME280;26257;49.442;8.422;2023-03-25T01:07:18;99722.78;;;11.28;100.00
24045;BME280;26257;49.442;8.422;2023-03-25T01:09:45;99712.22;;;11.28;100.00
24045;BME280;26257;49.442;8.422;2023-03-25T01:12:12;99720.16;;;11.22;100.00
24045;BME280;26257;49.442;8.422;2023-03-25T01:14:38;99718.44;;;11.15;100.00
24045;BME280;26257;49.442;8.422;2023-03-25T01:17:04;99723.72;;;11.15;100.00
24045;BME280;26257;49.442;8.422;2023-03-25T01:19:30;99719.34;;;11.12;100.00
24045;BME280;26257;49.442;8.422;2023-03-25T01:21:55;99719.34;;;11.00;100.00
24045;BME280;26257;49.442;8.422;2023-03-25T01:24:21;99714.97;;;11.01;100.00
24045;BME280;26257;49.442;8.422;2023-03-25T01:26:46;99718.47;;;11.01;100.00
24045;BME280;26257;49.442;8.422;2023-03-25T01:29:14;99709.66;;;11.05;100.00
24045;BME280;26257;49.442;8.422;2023-03-25T01:31:40;99700.88;;;10.99;100.00
24045;BME280;26257;49.442;8.422;2023-03-25T01:34:06;99712.34;;;10.96;100.00
24045;BME280;26257;49.442;8.422;2023-03-25T01:36:32;99719.38;;;11.05;100.00
24045;BME280;26257;49.442;8.422;2023-03-25T01:39:00;99707.88;;;11.06;100.00
24045;BME280;26257;49.442;8.422;2023-03-25T01:41:28;99719.44;;;10.87;100.00
24045;BME280;26257;49.442;8.422;2023-03-25T01:44:08;99748.53;;;10.57;100.00
24045;BME280;26257;49.442;8.422;2023-03-25T01:46:37;99769.59;;;9.90;100.00
24045;BME280;26257;49.442;8.422;2023-03-25T01:49:05;99845.63;;;8.95;100.00
24045;BME280;26257;49.442;8.422;2023-03-25T01:51:37;99840.19;;;8.74;100.00
24045;BME280;26257;49.442;8.422;2023-03-25T01:54:04;99819.75;;;8.41;100.00
24045;BME280;26257;49.442;8.422;2023-03-25T01:56:32;99794.19;;;8.29;100.00
24045;BME280;26257;49.442;8.422;2023-03-25T01:59:02;99759.91;;;8.22;100.00
24045;BME280;26257;49.442;8.422;2023-03-25T02:01:29;99736.41;;;8.38;100.00
24045;BME280;26257;49.442;8.422;2023-03-25T02:03:56;99739.91;;;8.40;100.00
24045;BME280;26257;49.442;8.422;2023-03-25T02:06:34;99735.59;;;8.53;100.00
24045;BME280;26257;49.442;8.422;2023-03-25T02:09:04;99732.94;;;8.44;100.00
24045;BME280;26257;49.442;8.422;2023-03-25T02:11:31;99719.78;;;8.44;100.00
24045;BME280;26257;49.442;8.422;2023-03-25T02:14:02;99728.56;;;8.49;100.00
24045;BME280;26257;49.442;8.422;2023-03-25T02:25:25;99735.47;;;8.29;100.00
24045;BME280;26257;49.442;8.422;2023-03-25T02:44:38;99725.53;;;9.47;100.00
24045;BME280;26257;49.442;8.422;2023-03-25T02:47:14;99755.41;;;9.43;100.00
24045;BME280;26257;49.442;8.422;2023-03-25T02:49:46;99725.53;;;9.47;100.00
24045;BME280;26257;49.442;8.422;2023-03-25T02:52:16;99750.16;;;9.49;100.00
24045;BME280;26257;49.442;8.422;2023-03-25T02:54:46;99740.50;;;9.54;100.00
24045;BME280;26257;49.442;8.422;2023-03-25T02:57:18;99751.97;;;9.62;100.00
24045;BME280;26257;49.442;8.422;2023-03-25T02:59:49;99747.56;;;9.59;100.00
24045;BME280;26257;49.442;8.422;2023-03-25T03:02:20;99760.75;;;9.64;100.00
24045;BME280;26257;49.442;8.422;2023-03-25T03:04:51;99744.06;;;9.62;100.00
24045;BME280;26257;49.442;8.422;2023-03-25T03:07:24;99755.47;;;9.70;100.00
24045;BME280;26257;49.442;8.422;2023-03-25T03:18:33;99764.31;;;9.84;100.00
24045;BME280;26257;49.442;8.422;2023-03-25T03:23:35;99756.38;;;9.88;100.00
24045;BME280;26257;49.442;8.422;2023-03-25T03:26:53;99762.56;;;9.93;100.00
24045;BME280;26257;49.442;8.422;2023-03-25T03:29:12;99756.41;;;9.96;100.00
24045;BME280;26257;49.442;8.422;2023-03-25T03:34:24;99754.63;;;9.83;100.00
24045;BME280;26257;49.442;8.422;2023-03-25T03:36:53;99770.47;;;9.84;100.00
24045;BME280;26257;49.442;8.422;2023-03-25T03:39:27;99756.38;;;9.79;100.00
24045;BME280;26257;49.442;8.422;2023-03-25T03:42:00;99755.50;;;9.79;100.00
24045;BME280;26257;49.442;8.422;2023-03-25T03:44:32;99753.75;;;9.82;100.00
24045;BME280;26257;49.442;8.422;2023-03-25T03:47:01;99760.78;;;9.91;100.00
24045;BME280;26257;49.442;8.422;2023-03-25T03:49:36;99762.56;;;9.97;100.00
24045;BME280;26257;49.442;8.422;2023-03-25T03:52:10;99761.69;;;9.91;100.00
24045;BME280;26257;49.442;8.422;2023-03-25T03:54:43;99734.41;;;9.91;100.00
24045;BME280;26257;49.442;8.422;2023-03-25T03:57:18;99760.81;;;9.94;100.00
24045;BME280;26257;49.442;8.422;2023-03-25T04:00:05;99745.88;;;10.01;100.00
24045;BME280;26257;49.442;8.422;2023-03-25T04:02:39;99750.28;;;10.06;100.00
24045;BME280;26257;49.442;8.422;2023-03-25T04:05:08;99750.25;;;9.97;100.00
24045;BME280;26257;49.442;8.422;2023-03-25T04:07:55;99743.25;;;10.11;100.00
24045;BME280;26257;49.442;8.422;2023-03-25T04:10:35;99738.84;;;10.10;100.00
24045;BME280;26257;49.442;8.422;2023-03-25T04:13:08;99760.81;;;9.97;100.00
24045;BME280;26257;49.442;8.422;2023-03-25T04:15:35;99750.25;;;9.97;100.00
24045;BME280;26257;49.442;8.422;2023-03-25T04:18:01;99750.28;;;10.03;100.00
24045;BME280;26257;49.442;8.422;2023-03-25T04:20:29;99748.53;;;10.11;100.00
24045;BME280;26257;49.442;8.422;2023-03-25T04:22:58;99770.50;;;10.12;100.00
24045;BME280;26257;49.442;8.422;2023-03-25T04:25:24;99770.50;;;10.12;100.00
24045;BME280;26257;49.442;8.422;2023-03-25T04:27:50;99777.59;;;10.19;100.00
24045;BME280;26257;49.442;8.422;2023-03-25T04:30:21;99778.44;;;10.22;100.00
24045;BME280;26257;49.442;8.422;2023-03-25T04:32:48;99784.63;;;10.23;100.00
24045;BME280;26257;49.442;8.422;2023-03-25T04:35:14;99774.94;;;10.35;100.00
24045;BME280;26257;49.442;8.422;2023-03-25T04:37:41;99778.44;;;10.22;100.00
24045;BME280;26257;49.442;8.422;2023-03-25T04:40:13;99778.41;;;10.10;100.00
24045;BME280;26257;49.442;8.422;2023-03-25T04:42:46;99775.78;;;10.09;100.00
24045;BME280;26257;49.442;8.422;2023-03-25T04:45:13;99775.78;;;10.03;100.00
24045;BME280;26257;49.442;8.422;2023-03-25T04:47:41;99785.47;;;10.08;100.00
24045;BME280;26257;49.442;8.422;2023-03-25T04:50:29;99779.28;;;10.08;100.00
24045;BME280;26257;49.442;8.422;2023-03-25T04:52:56;99784.53;;;9.94;100.00
24045;BME280;26257;49.442;8.422;2023-03-25T04:55:22;99773.06;;;9.74;100.00
24045;BME280;26257;49.442;8.422;2023-03-25T04:57:51;99780.09;;;9.69;100.00
24045;BME280;26257;49.442;8.422;2023-03-25T05:00:22;99759.88;;;9.68;100.00
24045;BME280;26257;49.442;8.422;2023-03-25T05:02:53;99792.47;;;9.85;100.00
24045;BME280;26257;49.442;8.422;2023-03-25T05:05:23;99797.59;;;9.46;100.00
24045;BME280;26257;49.442;8.422;2023-03-25T05:07:51;99799.41;;;9.59;100.00
24045;BME280;26257;49.442;8.422;2023-03-25T05:10:20;99780.03;;;9.51;100.00
24045;BME280;26257;49.442;8.422;2023-03-25T05:12:46;99797.53;;;9.33;100.00
24045;BME280;26257;49.442;8.422;2023-03-25T05:15:12;99788.69;;;9.25;100.00
24045;BME280;26257;49.442;8.422;2023-03-25T05:17:38;99790.50;;;9.32;100.00
24045;BME280;26257;49.442;8.422;2023-03-25T05:20:06;99779.94;;;9.29;100.00
24045;BME280;26257;49.442;8.422;2023-03-25T05:22:34;99794.09;;;9.53;100.00
24045;BME280;26257;49.442;8.422;2023-03-25T05:25:00;99795.88;;;9.54;100.00
24045;BME280;26257;49.442;8.422;2023-03-25T05:27:27;99813.41;;;9.43;100.00
24045;BME280;26257;49.442;8.422;2023-03-25T05:29:55;99803.78;;;9.51;100.00
24045;BME280;26257;49.442;8.422;2023-03-25T05:32:24;99814.34;;;9.60;100.00
24045;BME280;26257;49.442;8.422;2023-03-25T05:34:51;99806.50;;;9.72;100.00
24045;BME280;26257;49.442;8.422;2023-03-25T05:37:18;99785.38;;;9.78;100.00
24045;BME280;26257;49.442;8.422;2023-03-25T05:39:43;99760.78;;;9.86;100.00
24045;BME280;26257;49.442;8.422;2023-03-25T05:42:10;99787.19;;;9.85;100.00
24045;BME280;26257;49.442;8.422;2023-03-25T05:44:35;99780.13;;;9.72;100.00
24045;BME280;26257;49.442;8.422;2023-03-25T05:47:03;99753.75;;;9.75;100.00
24045;BME280;26257;49.442;8.422;2023-03-25T05:49:28;99794.22;;;9.92;100.00
24045;BME280;26257;49.442;8.422;2023-03-25T05:51:54;99789.84;;;9.97;100.00
24045;BME280;26257;49.442;8.422;2023-03-25T05:54:21;99795.13;;;9.96;100.00
24045;BME280;26257;49.442;8.422;2023-03-25T05:56:49;99816.22;;;9.99;100.00
24045;BME280;26257;49.442;8.422;2023-03-25T05:59:15;99803.91;;;10.01;100.00
24045;BME280;26257;49.442;8.422;2023-03-25T06:01:41;99824.13;;;9.97;100.00
24045;BME280;26257;49.442;8.422;2023-03-25T06:04:12;99810.94;;;10.09;100.00
24045;BME280;26257;49.442;8.422;2023-03-25T06:06:40;99815.41;;;10.13;100.00
24045;BME280;26257;49.442;8.422;2023-03-25T06:09:06;99820.59;;;10.01;100.00
24045;BME280;26257;49.442;8.422;2023-03-25T06:11:32;99815.41;;;10.15;100.00
24045;BME280;26257;49.442;8.422;2023-03-25T06:14:10;99821.56;;;10.23;100.00
24045;BME280;26257;49.442;8.422;2023-03-25T06:16:36;99826.88;;;10.21;100.00
24045;BME280;26257;49.442;8.422;2023-03-25T06:19:01;99836.56;;;10.31;100.00
24045;BME280;26257;49.442;8.422;2023-03-25T06:21:29;99836.53;;;10.40;100.00
24045;BME280;26257;49.442;8.422;2023-03-25T06:23:58;99838.31;;;10.32;100.00
24045;BME280;26257;49.442;8.422;2023-03-25T06:26:24;99839.19;;;10.27;100.00
24045;BME280;26257;49.442;8.422;2023-03-25T06:28:50;99830.38;;;10.23;100.00
24045;BME280;26257;49.442;8.422;2023-03-25T06:31:22;99835.66;;;10.31;100.00
24045;BME280;26257;49.442;8.422;2023-03-25T06:33:51;99831.25;;;10.25;100.00
24045;BME280;26257;49.442;8.422;2023-03-25T06:36:17;99835.69;;;10.37;100.00
24045;BME280;26257;49.442;8.422;2023-03-25T06:38:45;99839.19;;;10.54;100.00
24045;BME280;26257;49.442;8.422;2023-03-25T06:41:11;99834.78;;;10.48;100.00
24045;BME280;26257;49.442;8.422;2023-03-25T06:43:38;99823.34;;;10.36;100.00
24045;BME280;26257;49.442;8.422;2023-03-25T06:46:03;99840.97;;;10.41;100.00
24045;BME280;26257;49.442;8.422;2023-03-25T06:48:29;99822.50;;;10.47;100.00
24045;BME280;26257;49.442;8.422;2023-03-25T06:50:55;99834.78;;;10.51;100.00
24045;BME280;26257;49.442;8.422;2023-03-25T06:53:20;99817.19;;;10.53;100.00
24045;BME280;26257;49.442;8.422;2023-03-25T06:55:46;99805.75;;;10.51;100.00
24045;BME280;26257;49.442;8.422;2023-03-25T06:58:12;99812.81;;;10.52;100.00
24045;BME280;26257;49.442;8.422;2023-03-25T07:00:37;99811.94;;;10.69;100.00
24045;BME280;26257;49.442;8.422;2023-03-25T07:03:03;99802.22;;;10.62;100.00
24045;BME280;26257;49.442;8.422;2023-03-25T07:05:28;99811.94;;;10.69;100.00
24045;BME280;26257;49.442;8.422;2023-03-25T07:07:54;99805.72;;;10.74;100.00
24045;BME280;26257;49.442;8.422;2023-03-25T07:10:19;99799.56;;;10.89;100.00
24045;BME280;26257;49.442;8.422;2023-03-25T07:12:45;99808.31;;;11.03;100.00
24045;BME280;26257;49.442;8.422;2023-03-25T07:15:11;99809.13;;;11.32;100.00
24045;BME280;26257;49.442;8.422;2023-03-25T07:17:36;99794.09;;;11.49;100.00
24045;BME280;26257;49.442;8.422;2023-03-25T07:20:04;99817.94;;;11.39;100.00
24045;BME280;26257;49.442;8.422;2023-03-25T07:22:30;99797.63;;;11.48;100.00
24045;BME280;26257;49.442;8.422;2023-03-25T07:24:55;99785.25;;;11.53;100.00
24045;BME280;26257;49.442;8.422;2023-03-25T07:27:22;99779.97;;;11.53;100.00
24045;BME280;26257;49.442;8.422;2023-03-25T07:29:48;99769.31;;;11.71;100.00
24045;BME280;26257;49.442;8.422;2023-03-25T07:32:13;99768.50;;;11.53;100.00
24045;BME280;26257;49.442;8.422;2023-03-25T07:34:39;99762.28;;;11.63;100.00
24045;BME280;26257;49.442;8.422;2023-03-25T07:37:06;99788.81;;;11.49;100.00
24045;BME280;26257;49.442;8.422;2023-03-25T07:39:34;99764.97;;;11.55;100.00
24045;BME280;26257;49.442;8.422;2023-03-25T07:42:00;99794.03;;;11.67;100.00
24045;BME280;26257;49.442;8.422;2023-03-25T07:44:26;99741.06;;;11.80;100.00
24045;BME280;26257;49.442;8.422;2023-03-25T07:46:52;99759.59;;;11.73;100.00
24045;BME280;26257;49.442;8.422;2023-03-25T07:49:17;99769.28;;;11.77;100.00
24045;BME280;26257;49.442;8.422;2023-03-25T07:51:44;99748.03;;;11.90;100.00
24045;BME280;26257;49.442;8.422;2023-03-25T07:54:10;99770.06;;;11.95;100.00
24045;BME280;26257;49.442;8.422;2023-03-25T07:56:36;99756.69;;;12.16;100.00
24045;BME280;26257;49.442;8.422;2023-03-25T07:59:02;99774.38;;;12.11;100.00
24045;BME280;26257;49.442;8.422;2023-03-25T08:32:06;99784.78;;;12.38;100.00
24045;BME280;26257;49.442;8.422;2023-03-25T08:34:31;99783.94;;;12.33;100.00
24045;BME280;26257;49.442;8.422;2023-03-25T08:37:03;99788.25;;;12.43;100.00
24045;BME280;26257;49.442;8.422;2023-03-25T08:39:29;99791.72;;;12.51;100.00
24045;BME280;26257;49.442;8.422;2023-03-25T08:42:02;99782.06;;;12.46;100.00
24045;BME280;26257;49.442;8.422;2023-03-25T08:44:27;99782.69;;;12.73;100.00
24045;BME280;26257;49.442;8.422;2023-03-25T08:46:53;99804.75;;;12.72;100.00
24045;BME280;26257;49.442;8.422;2023-03-25T08:49:18;99774.81;;;12.66;100.00
24045;BME280;26257;49.442;8.422;2023-03-25T08:51:44;99770.19;;;12.86;100.00
24045;BME280;26257;49.442;8.422;2023-03-25T08:54:09;99780.63;;;13.02;100.00
24045;BME280;26257;49.442;8.422;2023-03-25T08:56:35;99803.50;;;13.16;100.00
24045;BME280;26257;49.442;8.422;2023-03-25T08:59:00;99783.41;;;12.89;100.00
24045;BME280;26257;49.442;8.422;2023-03-25T09:01:25;99781.44;;;13.14;100.00
24045;BME280;26257;49.442;8.422;2023-03-25T09:03:51;99770.91;;;13.01;100.00
24045;BME280;26257;49.442;8.422;2023-03-25T09:06:17;99817.94;;;12.81;100.00
24045;BME280;26257;49.442;8.422;2023-03-25T09:08:43;99810.09;;;12.71;100.00
24045;BME280;26257;49.442;8.422;2023-03-25T09:11:09;99793.31;;;12.67;100.00
24045;BME280;26257;49.442;8.422;2023-03-25T09:13:36;99775.63;;;12.72;100.00
24045;BME280;26257;49.442;8.422;2023-03-25T09:16:04;99777.06;;;13.07;100.00
24045;BME280;26257;49.442;8.422;2023-03-25T09:18:30;99775.22;;;13.15;100.00
24045;BME280;26257;49.442;8.422;2023-03-25T09:20:59;99777.16;;;12.96;100.00
24045;BME280;26257;49.442;8.422;2023-03-25T09:23:25;99775.38;;;12.96;100.00
24045;BME280;26257;49.442;8.422;2023-03-25T09:25:51;99793.13;;;12.88;100.00
24045;BME280;26257;49.442;8.422;2023-03-25T09:28:17;99789.63;;;12.86;100.00
24045;BME280;26257;49.442;8.422;2023-03-25T09:30:42;99777.34;;;12.79;100.00
24045;BME280;26257;49.442;8.422;2023-03-25T09:33:07;99766.78;;;12.73;100.00
24045;BME280;26257;49.442;8.422;2023-03-25T09:35:33;99765.00;;;12.77;100.00
24045;BME280;26257;49.442;8.422;2023-03-25T09:37:58;99778.28;;;12.71;100.00
24045;BME280;26257;49.442;8.422;2023-03-25T09:40:24;99786.16;;;12.81;100.00
24045;BME280;26257;49.442;8.422;2023-03-25T09:45:43;99788.88;;;12.74;100.00
24045;BME280;26257;49.442;8.422;2023-03-25T09:50:53;99780.59;;;13.09;100.00
24045;BME280;26257;49.442;8.422;2023-03-25T09:55:51;99776.75;;;12.49;100.00
24045;BME280;26257;49.442;8.422;2023-03-25T10:06:45;99784.38;;;12.80;100.00
24045;BME280;26257;49.442;8.422;2023-03-25T10:14:27;99776.28;;;13.73;98.34
24045;BME280;26257;49.442;8.422;2023-03-25T10:25:31;99776.25;;;14.36;88.77
24045;BME280;26257;49.442;8.422;2023-03-25T10:27:59;99783.44;;;14.28;83.93
24045;BME280;26257;49.442;8.422;2023-03-25T10:30:31;99773.81;;;14.20;82.27
24045;BME280;26257;49.442;8.422;2023-03-25T10:33:05;99776.47;;;14.19;83.27
24045;BME280;26257;49.442;8.422;2023-03-25T10:35:41;99774.53;;;14.33;80.75
24045;BME280;26257;49.442;8.422;2023-03-25T10:40:41;99783.38;;;13.71;86.45
24045;BME280;26257;49.442;8.422;2023-03-25T10:45:46;99771.59;;;13.92;91.76
24045;BME280;26257;49.442;8.422;2023-03-25T10:48:27;99773.78;;;13.59;92.98
24045;BME280;26257;49.442;8.422;2023-03-25T10:51:12;99765.91;;;13.55;94.72
24045;BME280;26257;49.442;8.422;2023-03-25T10:53:40;99771.72;;;13.13;96.15
24045;BME280;26257;49.442;8.422;2023-03-25T10:56:12;99774.47;;;13.00;100.00
24045;BME280;26257;49.442;8.422;2023-03-25T10:58:39;99793.13;;;12.91;99.80
24045;BME280;26257;49.442;8.422;2023-03-25T11:01:12;99793.13;;;12.88;99.86
24045;BME280;26257;49.442;8.422;2023-03-25T11:03:40;99788.78;;;12.84;97.93
24045;BME280;26257;49.442;8.422;2023-03-25T11:06:07;99776.56;;;12.65;98.55
24045;BME280;26257;49.442;8.422;2023-03-25T11:11:33;99855.16;;;12.69;100.00
24045;BME280;26257;49.442;8.422;2023-03-25T11:13:59;99846.47;;;12.52;100.00
24045;BME280;26257;49.442;8.422;2023-03-25T11:16:25;99816.81;;;12.02;100.00
24045;BME280;26257;49.442;8.422;2023-03-25T11:18:55;99820.31;;;12.04;100.00
24045;BME280;26257;49.442;8.422;2023-03-25T11:21:24;99844.16;;;11.98;100.00
24045;BME280;26257;49.442;8.422;2023-03-25T11:23:50;99829.19;;;11.95;100.00
24045;BME280;26257;49.442;8.422;2023-03-25T11:26:21;99827.44;;;11.93;100.00
24045;BME280;26257;49.442;8.422;2023-03-25T11:29:11;99847.63;;;12.12;100.00
24045;BME280;26257;49.442;8.422;2023-03-25T11:31:36;99837.81;;;12.27;100.00
24045;BME280;26257;49.442;8.422;2023-03-25T11:36:34;99869.72;;;12.05;100.00
24045;BME280;26257;49.442;8.422;2023-03-25T11:39:02;99852.22;;;11.64;100.00
24045;BME280;26257;49.442;8.422;2023-03-25T11:41:35;99880.44;;;11.65;100.00
24045;BME280;26257;49.442;8.422;2023-03-25T11:44:06;99871.75;;;11.03;100.00
24045;BME280;26257;49.442;8.422;2023-03-25T11:46:41;99850.63;;;10.91;100.00
24045;BME280;26257;49.442;8.422;2023-03-25T11:49:13;99838.00;;;11.99;100.00
24045;BME280;26257;49.442;8.422;2023-03-25T11:51:42;99842.25;;;13.29;100.00
24045;BME280;26257;49.442;8.422;2023-03-25T11:54:11;99821.63;;;14.20;100.00
24045;BME280;26257;49.442;8.422;2023-03-25T11:56:40;99809.94;;;14.87;91.21
24045;BME280;26257;49.442;8.422;2023-03-25T11:59:34;99849.06;;;15.29;82.15
24045;BME280;26257;49.442;8.422;2023-03-25T12:02:20;99818.13;;;16.11;79.54
24045;BME280;26257;49.442;8.422;2023-03-25T12:10:22;99803.09;;;16.45;74.37
24045;BME280;26257;49.442;8.422;2023-03-25T12:13:38;99816.34;;;16.87;72.00
24045;BME280;26257;49.442;8.422;2023-03-25T12:27:32;99813.66;;;15.72;73.07
24045;BME280;26257;49.442;8.422;2023-03-25T12:30:30;99802.69;;;14.95;83.56
24045;BME280;26257;49.442;8.422;2023-03-25T12:33:32;99817.81;;;14.40;90.31
24045;BME280;26257;49.442;8.422;2023-03-25T12:59:08;99775.47;;;15.28;69.22
24045;BME280;26257;49.442;8.422;2023-03-25T13:07:37;99765.06;;;15.16;67.16
24045;BME280;26257;49.442;8.422;2023-03-25T13:10:37;99775.28;;;15.37;67.30
24045;BME280;26257;49.442;8.422;2023-03-25T13:13:34;99764.59;;;15.40;68.42
24045;BME280;26257;49.442;8.422;2023-03-25T13:16:18;99757.59;;;15.78;68.57
24045;BME280;26257;49.442;8.422;2023-03-25T13:22:05;99736.13;;;15.46;67.04
24045;BME280;26257;49.442;8.422;2023-03-25T13:25:09;99734.91;;;16.37;62.56
24045;BME280;26257;49.442;8.422;2023-03-25T13:27:45;99734.66;;;16.46;63.91
24045;BME280;26257;49.442;8.422;2023-03-25T13:30:20;99737.34;;;16.80;55.88
24045;BME280;26257;49.442;8.422;2023-03-25T13:32:49;99726.28;;;15.89;53.47
24045;BME280;26257;49.442;8.422;2023-03-25T13:38:16;99753.44;;;15.22;54.08
24045;BME280;26257;49.442;8.422;2023-03-25T13:41:14;99781.78;;;15.23;53.88
24045;BME280;26257;49.442;8.422;2023-03-25T13:44:15;99791.66;;;15.16;51.92
24045;BME280;26257;49.442;8.422;2023-03-25T13:46:55;99759.72;;;15.62;52.11
24045;BME280;26257;49.442;8.422;2023-03-25T13:49:42;99744.88;;;17.28;45.44
24045;BME280;26257;49.442;8.422;2023-03-25T13:52:12;99737.84;;;18.69;42.21
24045;BME280;26257;49.442;8.422;2023-03-25T13:54:56;99727.00;;;18.47;40.19
24045;BME280;26257;49.442;8.422;2023-03-25T14:13:11;99734.00;;;16.72;44.39
24045;BME280;26257;49.442;8.422;2023-03-25T14:15:42;99719.34;;;16.88;42.94
24045;BME280;26257;49.442;8.422;2023-03-25T14:18:18;99710.19;;;17.28;43.80
24045;BME280;26257;49.442;8.422;2023-03-25T14:20:45;99723.38;;;17.65;42.37
24045;BME280;26257;49.442;8.422;2023-03-25T14:23:15;99716.88;;;18.29;41.32
24045;BME280;26257;49.442;8.422;2023-03-25T14:28:15;99744.25;;;17.51;42.05
24045;BME280;26257;49.442;8.422;2023-03-25T14:31:04;99708.91;;;17.11;41.29
24045;BME280;26257;49.442;8.422;2023-03-25T14:38:56;99732.13;;;17.09;42.63
24045;BME280;26257;49.442;8.422;2023-03-25T14:44:38;99720.44;;;16.81;42.75
24045;BME280;26257;49.442;8.422;2023-03-25T14:50:34;99723.34;;;16.36;43.50
24045;BME280;26257;49.442;8.422;2023-03-25T14:52:48;99719.69;;;17.08;42.64
24045;BME280;26257;49.442;8.422;2023-03-25T14:55:20;99750.38;;;17.56;41.77
24045;BME280;26257;49.442;8.422;2023-03-25T14:58:05;99734.50;;;18.09;40.68
24045;BME280;26257;49.442;8.422;2023-03-25T15:00:40;99715.41;;;18.73;40.47
24045;BME280;26257;49.442;8.422;2023-03-25T15:03:14;99713.38;;;18.55;39.82
24045;BME280;26257;49.442;8.422;2023-03-25T15:05:42;99738.06;;;17.80;40.19
24045;BME280;26257;49.442;8.422;2023-03-25T15:11:00;99721.25;;;18.32;40.56
24045;BME280;26257;49.442;8.422;2023-03-25T15:13:47;99721.47;;;18.54;39.68
24045;BME280;26257;49.442;8.422;2023-03-25T15:16:27;99718.28;;;19.17;38.61
24045;BME280;26257;49.442;8.422;2023-03-25T15:24:42;99738.88;;;19.41;36.60
24045;BME280;26257;49.442;8.422;2023-03-25T15:39:10;99752.69;;;18.78;37.61
24045;BME280;26257;49.442;8.422;2023-03-25T15:50:12;99727.88;;;17.93;40.17
24045;BME280;26257;49.442;8.422;2023-03-25T15:55:58;99718.56;;;17.78;41.02
24045;BME280;26257;49.442;8.422;2023-03-25T16:01:26;99720.38;;;16.82;41.98
24045;BME280;26257;49.442;8.422;2023-03-25T16:04:16;99719.75;;;16.37;43.45
24045;BME280;26257;49.442;8.422;2023-03-25T16:06:45;99718.41;;;16.56;43.70
24045;BME280;26257;49.442;8.422;2023-03-25T16:09:32;99730.16;;;16.48;43.66
24045;BME280;26257;49.442;8.422;2023-03-25T16:12:02;99762.34;;;16.40;44.01
24045;BME280;26257;49.442;8.422;2023-03-25T16:14:31;99706.03;;;16.54;43.83
24045;BME280;26257;49.442;8.422;2023-03-25T16:16:59;99755.88;;;16.86;43.32
24045;BME280;26257;49.442;8.422;2023-03-25T16:19:51;99741.44;;;16.60;43.35
24045;BME280;26257;49.442;8.422;2023-03-25T16:22:27;99747.59;;;16.96;43.56
24045;BME280;26257;49.442;8.422;2023-03-25T16:24:55;99720.19;;;16.57;44.26
24045;BME280;26257;49.442;8.422;2023-03-25T16:27:29;99734.19;;;16.65;44.50
24045;BME280;26257;49.442;8.422;2023-03-25T16:29:55;99722.78;;;16.60;45.06
24045;BME280;26257;49.442;8.422;2023-03-25T16:32:32;99733.59;;;16.53;44.78
24045;BME280;26257;49.442;8.422;2023-03-25T16:34:58;99736.88;;;16.64;45.09
24045;BME280;26257;49.442;8.422;2023-03-25T16:37:24;99723.34;;;16.72;44.66
24045;BME280;26257;49.442;8.422;2023-03-25T16:39:56;99779.22;;;16.78;44.30
24045;BME280;26257;49.442;8.422;2023-03-25T16:42:30;99727.44;;;16.85;44.48
24045;BME280;26257;49.442;8.422;2023-03-25T16:45:02;99746.66;;;17.29;43.58
24045;BME280;26257;49.442;8.422;2023-03-25T16:47:32;99731.19;;;16.78;44.46
24045;BME280;26257;49.442;8.422;2023-03-25T16:50:00;99726.09;;;16.68;44.85
24045;BME280;26257;49.442;8.422;2023-03-25T16:52:28;99708.84;;;17.14;44.28
24045;BME280;26257;49.442;8.422;2023-03-25T16:57:26;99720.94;;;16.62;44.93
24045;BME280;26257;49.442;8.422;2023-03-25T16:59:53;99720.94;;;16.62;45.48
24045;BME280;26257;49.442;8.422;2023-03-25T17:02:28;99723.41;;;16.33;46.09